Time;durP1;ratioP1;P1;durP2;ratioP2;P2;SDS_P1;SDS_P2;PMS_P1;PMS_P2;Temp;Humidity;BMP_temperature;BMP_pressure;BME280_temperature;BME280_humidity;BME280_pressure;Samples;Min_cycle;Max_cycle;Signal;HPM_P1;HPM_P2
2022/10/03 00:01:37;;;;;;;15.30;7.40;;;13.90;99.90;;;;;;5025015;28;20443;-68
2022/10/03 00:04:36;;;;;;;22.90;6.10;;;13.80;99.90;;;;;;4981254;28;20436;-67
2022/10/03 00:07:26;;;;;;;21.53;7.07;;;13.80;99.90;;;;;;5016416;28;20943;-68
2022/10/03 00:10:31;;;;;;;53.17;9.37;;;13.70;99.90;;;;;;5028315;28;20819;-68
2022/10/03 00:13:24;;;;;;;25.73;6.70;;;13.70;99.90;;;;;;5026170;28;20455;-67
2022/10/03 00:16:07;;;;;;;36.77;7.63;;;13.70;99.90;;;;;;5025507;28;20462;-68
2022/10/03 00:19:01;;;;;;;12.73;5.90;;;13.70;99.90;;;;;;5027815;28;20487;-67
2022/10/03 00:21:49;;;;;;;10.87;6.20;;;13.70;99.90;;;;;;5026927;28;20454;-68
2022/10/03 00:24:42;;;;;;;21.27;6.90;;;13.60;99.90;;;;;;5017263;28;20439;-68
2022/10/03 00:27:24;;;;;;;8.70;6.37;;;13.60;99.90;;;;;;5018387;28;20453;-67
2022/10/03 00:30:00;;;;;;;14.33;5.90;;;13.60;99.90;;;;;;5026837;28;20446;-67
2022/10/03 00:32:54;;;;;;;7.53;6.07;;;13.50;99.90;;;;;;5025567;28;20968;-67
2022/10/03 00:35:49;;;;;;;13.93;6.23;;;13.50;99.90;;;;;;5021625;28;20459;-67
2022/10/03 00:38:46;;;;;;;22.60;5.93;;;13.50;99.90;;;;;;5026421;28;20526;-67
2022/10/03 00:41:28;;;;;;;13.10;6.33;;;13.60;99.90;;;;;;5011868;28;20475;-67
2022/10/03 00:44:20;;;;;;;11.07;7.07;;;13.50;99.90;;;;;;5024153;28;20837;-67
2022/10/03 00:47:05;;;;;;;9.03;6.00;;;13.50;99.90;;;;;;5022088;28;21111;-67
2022/10/03 00:49:52;;;;;;;8.30;5.97;;;13.60;99.90;;;;;;5021250;28;20434;-67
2022/10/03 00:52:59;;;;;;;6.80;5.20;;;13.60;99.90;;;;;;5021609;28;20474;-68
2022/10/03 00:56:01;;;;;;;7.30;5.23;;;13.60;99.90;;;;;;4983695;28;20472;-68
2022/10/03 00:59:04;;;;;;;9.53;6.40;;;13.60;99.90;;;;;;4986183;28;20910;-68
2022/10/03 01:01:49;;;;;;;8.37;5.30;;;13.60;99.90;;;;;;5027122;28;20461;-70
2022/10/03 01:04:32;;;;;;;6.00;4.50;;;13.70;99.90;;;;;;5021138;28;20802;-68
2022/10/03 01:07:04;;;;;;;7.80;5.57;;;13.70;99.90;;;;;;5021983;28;20443;-69
2022/10/03 01:09:45;;;;;;;7.30;5.13;;;13.80;99.90;;;;;;5024191;28;20445;-69
2022/10/03 01:12:39;;;;;;;5.77;4.40;;;13.80;99.90;;;;;;5027422;28;20462;-68
2022/10/03 01:15:15;;;;;;;5.60;4.83;;;13.80;99.90;;;;;;5016978;28;20549;-68
2022/10/03 01:18:09;;;;;;;6.17;4.67;;;13.80;99.90;;;;;;5017887;28;20857;-68
2022/10/03 01:21:05;;;;;;;6.60;5.60;;;13.80;99.90;;;;;;5022500;28;20922;-67
2022/10/03 01:23:52;;;;;;;6.20;4.70;;;13.90;99.90;;;;;;5022550;28;20446;-68
2022/10/03 01:26:48;;;;;;;5.67;4.20;;;13.80;99.90;;;;;;5026159;28;20446;-67
2022/10/03 01:32:23;;;;;;;8.40;4.23;;;13.90;99.90;;;;;;5023140;28;20470;-68
2022/10/03 01:35:26;;;;;;;6.00;5.20;;;13.90;99.90;;;;;;5024080;28;20445;-69
2022/10/03 01:38:19;;;;;;;4.87;4.20;;;13.80;99.90;;;;;;5022538;28;20457;-69
2022/10/03 01:41:07;;;;;;;4.97;4.20;;;13.90;99.90;;;;;;5013771;28;20482;-69
2022/10/03 01:43:51;;;;;;;5.50;4.00;;;13.90;99.90;;;;;;5020131;28;20427;-69
2022/10/03 01:46:22;;;;;;;5.50;3.67;;;13.90;99.90;;;;;;5018843;28;20450;-69
2022/10/03 01:49:24;;;;;;;4.53;3.80;;;13.90;99.90;;;;;;5020447;28;20968;-69
2022/10/03 01:52:19;;;;;;;5.60;4.33;;;13.90;99.90;;;;;;5020500;28;20875;-69
2022/10/03 01:54:57;;;;;;;5.23;3.90;;;13.80;99.90;;;;;;5028236;28;20453;-68
2022/10/03 01:57:45;;;;;;;5.30;4.50;;;13.80;99.90;;;;;;5023689;28;20439;-67
2022/10/03 02:00:20;;;;;;;6.03;3.70;;;13.80;99.90;;;;;;5013461;28;20443;-68
2022/10/03 02:03:01;;;;;;;6.03;4.50;;;13.80;99.90;;;;;;5026824;28;20469;-68
2022/10/03 02:05:46;;;;;;;6.90;4.50;;;13.80;99.90;;;;;;5021534;28;20818;-68
2022/10/03 02:08:27;;;;;;;6.37;4.70;;;13.80;99.90;;;;;;5018809;28;20459;-67
2022/10/03 02:11:07;;;;;;;8.30;4.67;;;13.80;99.90;;;;;;5022598;28;20449;-68
2022/10/03 02:13:42;;;;;;;5.37;4.40;;;13.90;99.90;;;;;;5023012;28;20451;-67
2022/10/03 02:16:27;;;;;;;4.83;3.83;;;13.80;99.90;;;;;;5019356;28;20477;-68
2022/10/03 02:19:11;;;;;;;7.73;4.27;;;13.80;99.90;;;;;;5021942;28;20442;-68
2022/10/03 02:21:48;;;;;;;5.17;4.20;;;13.80;99.90;;;;;;5021033;28;20501;-68
2022/10/03 02:24:13;;;;;;;6.93;3.73;;;13.80;99.90;;;;;;5029621;28;20398;-68
2022/10/03 02:26:54;;;;;;;5.20;3.77;;;13.70;99.90;;;;;;5032935;28;20417;-67
2022/10/03 02:29:38;;;;;;;10.20;3.83;;;13.70;99.90;;;;;;5027294;28;20255;-68
2022/10/03 02:32:44;;;;;;;5.40;3.97;;;13.70;99.90;;;;;;5027625;28;20835;-68
2022/10/03 02:35:41;;;;;;;5.43;4.40;;;13.70;99.90;;;;;;5027194;28;20466;-68
2022/10/03 02:38:55;;;;;;;5.43;3.77;;;13.70;99.90;;;;;;5027074;28;20537;-68
2022/10/03 02:41:58;;;;;;;4.40;4.00;;;13.70;99.90;;;;;;5026980;28;20434;-68
2022/10/03 02:44:37;;;;;;;4.97;4.00;;;13.60;99.90;;;;;;5024266;28;20435;-68
2022/10/03 02:47:35;;;;;;;7.73;4.53;;;13.60;99.90;;;;;;5030811;28;20459;-68
2022/10/03 02:50:25;;;;;;;4.43;4.03;;;13.60;99.90;;;;;;5021091;28;20441;-69
2022/10/03 02:52:54;;;;;;;6.57;4.20;;;13.50;99.90;;;;;;5021214;28;20489;-69
2022/10/03 02:55:38;;;;;;;4.50;4.10;;;13.50;99.90;;;;;;5020409;28;20489;-69
2022/10/03 02:58:41;;;;;;;5.80;4.73;;;13.50;99.90;;;;;;5021008;28;20438;-69
2022/10/03 03:01:31;;;;;;;6.90;5.07;;;13.50;99.90;;;;;;5018714;28;20435;-69
2022/10/03 03:04:41;;;;;;;4.80;4.30;;;13.50;99.90;;;;;;5024539;28;20431;-68
2022/10/03 03:07:18;;;;;;;7.87;4.83;;;13.50;99.90;;;;;;5026414;28;20435;-68
2022/10/03 03:10:09;;;;;;;8.33;5.47;;;13.50;99.90;;;;;;5027729;28;20415;-69
2022/10/03 03:13:07;;;;;;;7.80;4.90;;;13.50;99.90;;;;;;5021022;28;20531;-69
2022/10/03 03:16:00;;;;;;;5.73;4.80;;;13.50;99.90;;;;;;5024372;28;20516;-69
2022/10/03 03:18:29;;;;;;;4.97;4.47;;;13.60;99.90;;;;;;5028720;28;20921;-69
2022/10/03 03:21:22;;;;;;;7.70;5.83;;;13.60;99.90;;;;;;5026041;28;20436;-69
2022/10/03 03:24:22;;;;;;;6.13;5.53;;;13.60;99.90;;;;;;5030624;28;20495;-69
2022/10/03 03:27:24;;;;;;;7.87;4.90;;;13.70;99.90;;;;;;5019634;28;20438;-68
2022/10/03 03:30:02;;;;;;;6.37;4.67;;;13.70;99.90;;;;;;5019921;28;20432;-69
2022/10/03 03:32:38;;;;;;;6.97;5.70;;;13.70;99.90;;;;;;5024526;28;20504;-69
2022/10/03 03:35:20;;;;;;;8.33;5.80;;;13.70;99.90;;;;;;5021604;28;20833;-68
2022/10/03 03:38:02;;;;;;;6.00;4.77;;;13.70;99.90;;;;;;5031198;28;20521;-68
2022/10/03 03:40:49;;;;;;;8.67;5.10;;;13.70;99.90;;;;;;5026314;28;20590;-68
2022/10/03 03:43:33;;;;;;;6.50;5.00;;;13.70;99.90;;;;;;5019645;28;20458;-68
2022/10/03 03:46:37;;;;;;;6.33;5.03;;;13.80;99.90;;;;;;5030390;28;20811;-68
2022/10/03 03:49:31;;;;;;;5.90;5.27;;;13.80;99.90;;;;;;5032051;28;20788;-68
2022/10/03 03:52:31;;;;;;;9.10;5.47;;;13.80;99.90;;;;;;5031941;28;20466;-68
2022/10/03 03:55:07;;;;;;;5.43;4.93;;;13.80;99.90;;;;;;5031682;28;20438;-68
2022/10/03 03:57:58;;;;;;;6.00;5.13;;;13.80;99.90;;;;;;5027696;28;20457;-68
2022/10/03 04:01:02;;;;;;;6.13;5.30;;;13.80;99.90;;;;;;5026366;28;20509;-68
2022/10/03 04:03:58;;;;;;;7.13;5.80;;;13.90;99.90;;;;;;5027354;28;20477;-68
2022/10/03 04:06:34;;;;;;;7.47;5.17;;;13.90;99.90;;;;;;5031330;28;20407;-67
2022/10/03 04:09:27;;;;;;;6.00;5.30;;;13.90;99.90;;;;;;5023752;28;20430;-67
2022/10/03 04:12:07;;;;;;;7.77;5.40;;;13.90;99.90;;;;;;5027185;28;20920;-67
2022/10/03 04:15:05;;;;;;;7.50;6.00;;;13.90;99.90;;;;;;5026530;28;20446;-67
2022/10/03 04:20:43;;;;;;;6.73;5.23;;;14.00;99.90;;;;;;5027108;28;20434;-68
2022/10/03 04:23:27;;;;;;;7.10;5.73;;;14.00;99.90;;;;;;5028562;28;20836;-68
2022/10/03 04:26:16;;;;;;;6.53;5.83;;;14.00;99.90;;;;;;5033612;28;20423;-68
2022/10/03 04:28:56;;;;;;;7.50;5.43;;;14.00;99.90;;;;;;5032719;28;20439;-69
2022/10/03 04:31:57;;;;;;;7.27;5.63;;;14.00;99.90;;;;;;5026014;28;20434;-69
2022/10/03 04:34:41;;;;;;;6.73;5.93;;;14.00;99.90;;;;;;5030990;28;20446;-69
2022/10/03 04:37:40;;;;;;;7.00;5.50;;;14.00;99.90;;;;;;5026560;28;20495;-69
2022/10/03 04:40:38;;;;;;;8.43;6.40;;;14.00;99.90;;;;;;5028045;28;20441;-69
2022/10/03 04:43:14;;;;;;;8.10;6.10;;;14.10;99.90;;;;;;5026366;28;20451;-69
2022/10/03 04:45:58;;;;;;;7.60;6.17;;;14.10;99.90;;;;;;5032307;28;20406;-69
2022/10/03 04:48:47;;;;;;;7.33;6.57;;;14.10;99.90;;;;;;5032061;28;20420;-69
2022/10/03 04:51:33;;;;;;;8.80;5.83;;;14.00;99.90;;;;;;5029254;28;20420;-69
2022/10/03 04:54:18;;;;;;;8.07;6.20;;;14.00;99.90;;;;;;5025578;28;20443;-69
2022/10/03 04:57:19;;;;;;;6.20;5.37;;;14.00;99.90;;;;;;5023667;28;20473;-69
2022/10/03 05:00:01;;;;;;;7.10;5.23;;;14.10;99.90;;;;;;5027936;28;20533;-69
2022/10/03 05:02:45;;;;;;;6.63;5.20;;;14.00;99.90;;;;;;5034257;28;20427;-69
2022/10/03 05:05:26;;;;;;;11.57;6.93;;;14.00;99.90;;;;;;5023095;28;20473;-69
2022/10/03 05:08:17;;;;;;;8.00;5.70;;;14.00;99.90;;;;;;5021950;28;20430;-69
2022/10/03 05:11:05;;;;;;;8.23;6.37;;;14.00;99.90;;;;;;5016642;28;20423;-69
2022/10/03 05:13:43;;;;;;;10.33;7.13;;;14.00;99.90;;;;;;5028763;28;20443;-69
2022/10/03 05:16:16;;;;;;;7.60;5.40;;;14.00;99.90;;;;;;5026283;28;20462;-69
2022/10/03 05:19:19;;;;;;;8.90;6.13;;;13.90;99.90;;;;;;5024921;28;20427;-69
2022/10/03 05:21:48;;;;;;;7.20;6.07;;;13.90;99.90;;;;;;5029302;28;20454;-69
2022/10/03 05:24:48;;;;;;;8.10;6.37;;;13.90;99.90;;;;;;5028952;28;20990;-69
2022/10/03 05:27:19;;;;;;;6.70;5.20;;;13.90;99.90;;;;;;5028940;28;20860;-69
2022/10/03 05:30:12;;;;;;;11.10;5.83;;;13.90;99.90;;;;;;5026972;28;20443;-69
2022/10/03 05:32:49;;;;;;;9.13;7.57;;;13.90;99.90;;;;;;5011921;28;20527;-69
2022/10/03 05:35:48;;;;;;;8.37;7.50;;;13.90;99.90;;;;;;5020848;28;20466;-69
2022/10/03 05:38:41;;;;;;;11.37;7.73;;;13.90;99.90;;;;;;5023546;28;20983;-69
2022/10/03 05:41:18;;;;;;;8.67;7.60;;;13.90;99.90;;;;;;5020470;28;20431;-69
2022/10/03 05:44:04;;;;;;;7.93;7.10;;;14.00;99.90;;;;;;5048448;28;20537;-69
2022/10/03 05:46:57;;;;;;;8.13;7.07;;;14.00;99.90;;;;;;5029861;28;20427;-69
2022/10/03 05:49:43;;;;;;;7.97;6.43;;;14.00;99.90;;;;;;5030944;28;20782;-69
2022/10/03 05:52:15;;;;;;;14.97;6.57;;;14.00;99.90;;;;;;5027896;28;21343;-69
2022/10/03 05:54:58;;;;;;;7.40;6.20;;;14.00;99.90;;;;;;5026329;28;20790;-69
2022/10/03 05:57:40;;;;;;;9.43;6.80;;;14.00;99.90;;;;;;5024944;28;20504;-69
2022/10/03 06:00:20;;;;;;;7.80;6.13;;;13.90;99.90;;;;;;5026174;28;20427;-69
2022/10/03 06:03:10;;;;;;;9.00;6.80;;;14.00;99.90;;;;;;5023930;28;20531;-69
2022/10/03 06:05:45;;;;;;;9.07;5.60;;;13.90;99.90;;;;;;5036699;28;20429;-69
2022/10/03 06:08:32;;;;;;;8.57;6.13;;;14.00;99.90;;;;;;5031772;28;21226;-69
2022/10/03 06:11:27;;;;;;;9.30;5.70;;;14.00;99.90;;;;;;5036849;28;20511;-69
2022/10/03 06:13:52;;;;;;;8.77;5.80;;;13.90;99.90;;;;;;5032535;28;20518;-69
2022/10/03 06:16:47;;;;;;;8.30;5.90;;;13.90;99.90;;;;;;5031828;28;20450;-69
2022/10/03 06:19:23;;;;;;;7.40;6.60;;;13.90;99.90;;;;;;5032104;28;20176;-68
2022/10/03 06:22:07;;;;;;;7.73;6.17;;;13.90;99.90;;;;;;5034662;28;20454;-68
2022/10/03 06:24:37;;;;;;;7.77;6.50;;;13.90;99.90;;;;;;5024416;28;20785;-68
2022/10/03 06:27:28;;;;;;;8.10;7.07;;;13.90;99.90;;;;;;5034345;28;20453;-68
2022/10/03 06:30:10;;;;;;;11.30;6.50;;;14.00;99.90;;;;;;5026186;28;20439;-69
2022/10/03 06:33:25;;;;;;;13.70;6.63;;;14.00;99.90;;;;;;5036398;28;20435;-68
2022/10/03 06:36:15;;;;;;;7.40;6.07;;;14.00;99.90;;;;;;5033731;28;20470;-68
2022/10/03 06:39:22;;;;;;;12.17;6.63;;;14.10;99.90;;;;;;5037835;28;20449;-69
2022/10/03 06:42:06;;;;;;;8.50;6.30;;;14.10;99.90;;;;;;5032214;28;20481;-69
2022/10/03 06:44:44;;;;;;;9.00;7.03;;;14.10;99.90;;;;;;5026396;28;20496;-69
2022/10/03 06:47:36;;;;;;;7.60;6.53;;;14.00;99.90;;;;;;5034395;28;20983;-68
2022/10/03 06:50:17;;;;;;;8.87;7.03;;;14.00;99.90;;;;;;5033708;28;21068;-69
2022/10/03 06:53:01;;;;;;;7.80;5.67;;;14.00;99.90;;;;;;5030734;28;20990;-68
2022/10/03 06:55:50;;;;;;;7.77;6.33;;;14.10;99.90;;;;;;5033383;28;20483;-69
2022/10/03 06:58:40;;;;;;;12.27;8.23;;;14.10;99.90;;;;;;5028644;28;20804;-69
2022/10/03 07:01:44;;;;;;;8.27;6.43;;;14.10;99.90;;;;;;5025597;28;20430;-69
2022/10/03 07:04:40;;;;;;;8.70;6.20;;;14.20;99.90;;;;;;5035769;28;20414;-69
2022/10/03 07:07:15;;;;;;;8.43;7.00;;;14.30;99.90;;;;;;5021129;28;20434;-69
2022/10/03 07:10:22;;;;;;;9.37;7.43;;;14.40;99.90;;;;;;5026593;28;20442;-69
2022/10/03 07:13:11;;;;;;;7.57;6.77;;;14.40;99.90;;;;;;5029844;28;20580;-69
2022/10/03 07:15:47;;;;;;;8.33;6.63;;;14.50;99.90;;;;;;5027056;28;20513;-69
2022/10/03 07:18:34;;;;;;;12.07;9.03;;;14.60;99.90;;;;;;5025419;28;20613;-69
2022/10/03 07:21:20;;;;;;;10.27;7.57;;;14.60;99.90;;;;;;5021041;28;20439;-67
2022/10/03 07:24:33;;;;;;;11.30;7.87;;;14.70;99.90;;;;;;5032060;28;20451;-64
2022/10/03 07:27:43;;;;;;;7.43;6.73;;;14.60;99.90;;;;;;5019619;28;20430;-68
2022/10/03 07:30:15;;;;;;;8.40;7.50;;;14.60;99.90;;;;;;5000696;28;20506;-67
2022/10/03 07:33:25;;;;;;;11.17;8.07;;;14.70;99.90;;;;;;5019874;28;20443;-68
2022/10/03 07:39:31;;;;;;;10.07;7.90;;;14.80;99.90;;;;;;5022792;28;20431;-68
2022/10/03 07:42:10;;;;;;;15.17;8.27;;;14.90;99.90;;;;;;5013036;28;20513;-68
2022/10/03 07:44:54;;;;;;;7.57;6.77;;;14.90;99.90;;;;;;5022771;28;20456;-68
2022/10/03 07:47:37;;;;;;;12.70;8.50;;;15.00;99.90;;;;;;5025229;28;20426;-68
2022/10/03 07:50:17;;;;;;;11.90;9.10;;;15.10;99.90;;;;;;5026754;28;20863;-68
2022/10/03 07:52:51;;;;;;;19.60;12.67;;;15.20;99.90;;;;;;5024643;28;20916;-68
2022/10/03 07:55:41;;;;;;;14.77;9.37;;;15.20;99.90;;;;;;5034224;28;20468;-68
2022/10/03 07:58:43;;;;;;;9.20;8.13;;;15.20;99.90;;;;;;5026979;28;20428;-68
2022/10/03 08:01:12;;;;;;;11.70;7.80;;;15.30;99.90;;;;;;5019851;28;20440;-68
2022/10/03 08:03:59;;;;;;;9.77;7.40;;;15.40;99.90;;;;;;5023659;28;20888;-68
2022/10/03 08:06:51;;;;;;;9.97;8.10;;;15.40;99.90;;;;;;5029688;28;20430;-68
2022/10/03 08:09:49;;;;;;;17.00;8.87;;;15.50;99.90;;;;;;5012490;28;20518;-68
2022/10/03 08:12:39;;;;;;;12.10;7.90;;;15.50;99.90;;;;;;5014936;28;20470;-68
2022/10/03 08:15:22;;;;;;;16.50;12.63;;;15.50;99.90;;;;;;5023667;28;20566;-68
2022/10/03 08:18:35;;;;;;;18.70;13.47;;;15.60;99.90;;;;;;5024242;28;20470;-68
2022/10/03 08:21:04;;;;;;;13.57;11.17;;;15.70;99.90;;;;;;5000681;28;20478;-68
2022/10/03 08:23:57;;;;;;;16.00;12.20;;;15.70;99.90;;;;;;5017144;28;20601;-68
2022/10/03 08:26:42;;;;;;;15.77;11.37;;;15.70;99.90;;;;;;5020493;28;20482;-68
2022/10/03 08:29:47;;;;;;;21.23;11.80;;;15.70;99.90;;;;;;5016057;28;20510;-67
2022/10/03 08:32:34;;;;;;;15.93;12.77;;;15.80;99.90;;;;;;5012115;28;20471;-67
2022/10/03 08:35:15;;;;;;;24.70;14.47;;;15.80;99.90;;;;;;5033900;28;20437;-67
2022/10/03 08:38:02;;;;;;;21.87;16.77;;;15.80;99.90;;;;;;5024799;28;20518;-67
2022/10/03 08:40:55;;;;;;;26.27;17.43;;;15.80;99.90;;;;;;5027862;28;20521;-67
2022/10/03 08:43:51;;;;;;;27.53;17.33;;;15.70;99.90;;;;;;5023803;28;20447;-68
2022/10/03 08:46:29;;;;;;;27.63;18.20;;;15.70;99.90;;;;;;5023866;28;20454;-67
2022/10/03 08:48:54;;;;;;;26.50;16.40;;;15.60;99.90;;;;;;5028756;28;20419;-67
2022/10/03 08:52:03;;;;;;;35.80;18.40;;;15.60;99.90;;;;;;5024133;28;20434;-67
2022/10/03 08:54:50;;;;;;;23.43;17.43;;;15.50;99.90;;;;;;5026117;28;20643;-67
2022/10/03 08:57:37;;;;;;;22.53;15.90;;;15.50;99.90;;;;;;5014930;28;20860;-67
2022/10/03 09:00:45;;;;;;;25.70;16.33;;;15.50;99.90;;;;;;5028866;28;20415;-64
2022/10/03 09:03:19;;;;;;;18.50;13.90;;;15.50;99.90;;;;;;5026106;28;20947;-66
2022/10/03 09:06:07;;;;;;;21.63;13.43;;;15.60;99.90;;;;;;5024946;28;20434;-66
2022/10/03 09:08:44;;;;;;;25.67;15.23;;;15.70;99.90;;;;;;5016089;28;20530;-67
2022/10/03 09:11:36;;;;;;;23.40;14.47;;;15.80;99.90;;;;;;5027911;28;20973;-66
2022/10/03 09:14:41;;;;;;;21.53;13.17;;;15.90;99.90;;;;;;5022286;28;20519;-67
2022/10/03 09:17:52;;;;;;;18.27;13.97;;;15.90;99.90;;;;;;5011842;28;20471;-66
2022/10/03 09:20:58;;;;;;;20.80;14.87;;;16.10;99.90;;;;;;5016241;28;20792;-66
2022/10/03 09:23:55;;;;;;;22.00;13.60;;;16.30;99.90;;;;;;5032730;28;20927;-66
2022/10/03 09:26:46;;;;;;;20.00;13.20;;;16.40;99.90;;;;;;5028038;28;20572;-66
2022/10/03 09:29:40;;;;;;;17.90;12.70;;;16.60;99.90;;;;;;5018215;28;20439;-66
2022/10/03 09:32:18;;;;;;;18.10;13.93;;;16.70;99.90;;;;;;4994800;28;20467;-68
2022/10/03 09:35:08;;;;;;;19.20;12.97;;;16.80;99.90;;;;;;5025689;28;20520;-66
2022/10/03 09:38:12;;;;;;;25.47;12.60;;;16.80;99.90;;;;;;5027199;28;20496;-66
2022/10/03 09:40:56;;;;;;;15.50;11.73;;;16.90;99.90;;;;;;5032182;28;20855;-66
2022/10/03 09:43:41;;;;;;;20.20;12.40;;;16.90;99.90;;;;;;5023578;28;20431;-65
2022/10/03 09:47:21;;;;;;;16.83;11.30;;;16.90;99.90;;;;;;5024378;28;20432;-65
2022/10/03 09:50:18;;;;;;;23.20;11.63;;;17.00;99.90;;;;;;5018033;28;20932;-65
2022/10/03 09:53:08;;;;;;;15.03;10.37;;;16.90;99.90;;;;;;5016989;28;20478;-68
2022/10/03 09:56:03;;;;;;;18.60;13.80;;;16.80;99.90;;;;;;5029208;28;20621;-69
2022/10/03 09:58:38;;;;;;;15.73;13.07;;;16.70;99.90;;;;;;5023540;28;20430;-69
2022/10/03 10:01:10;;;;;;;14.33;11.20;;;16.70;99.90;;;;;;5028835;28;20454;-68
2022/10/03 10:04:13;;;;;;;18.17;10.67;;;16.60;99.90;;;;;;5031405;28;20923;-69
2022/10/03 10:06:41;;;;;;;15.83;10.23;;;16.50;99.90;;;;;;5033059;28;20954;-69
2022/10/03 10:09:52;;;;;;;16.70;10.47;;;16.50;99.90;;;;;;5034706;28;20430;-69
2022/10/03 10:13:06;;;;;;;15.63;11.63;;;16.40;99.90;;;;;;5019197;28;20902;-69
2022/10/03 10:16:13;;;;;;;21.57;11.40;;;16.40;99.90;;;;;;5031273;28;20986;-69
2022/10/03 10:19:13;;;;;;;30.27;11.50;;;16.30;99.90;;;;;;5034418;28;20410;-69
2022/10/03 10:22:17;;;;;;;19.20;10.87;;;16.30;99.90;;;;;;5022618;28;20462;-69
2022/10/03 10:24:48;;;;;;;16.93;9.97;;;16.30;99.90;;;;;;5010421;28;20449;-68
2022/10/03 10:27:55;;;;;;;12.50;9.40;;;16.30;99.90;;;;;;5022357;28;20435;-70
2022/10/03 10:30:44;;;;;;;13.30;9.10;;;16.20;99.90;;;;;;5023920;28;20438;-66
2022/10/03 10:33:43;;;;;;;14.73;9.20;;;16.20;99.90;;;;;;5032942;28;20437;-67
2022/10/03 10:36:34;;;;;;;10.80;8.37;;;16.20;99.90;;;;;;5021167;28;20459;-67
2022/10/03 10:39:33;;;;;;;21.60;9.47;;;16.20;99.90;;;;;;5022927;28;20948;-66
2022/10/03 10:42:13;;;;;;;14.20;7.77;;;16.30;99.90;;;;;;5029811;28;20435;-67
2022/10/03 10:45:01;;;;;;;13.50;8.47;;;16.30;99.90;;;;;;5033386;28;20437;-67
2022/10/03 10:47:35;;;;;;;12.80;7.53;;;16.30;99.90;;;;;;5028302;28;21190;-65
2022/10/03 10:50:22;;;;;;;15.97;8.67;;;16.40;99.90;;;;;;5036140;28;20426;-65
2022/10/03 10:53:26;;;;;;;18.07;12.17;;;16.50;99.90;;;;;;5025391;28;20469;-66
2022/10/03 10:56:29;;;;;;;18.40;8.53;;;16.60;99.90;;;;;;5019761;28;20462;-66
2022/10/03 10:58:57;;;;;;;12.27;7.90;;;16.70;99.90;;;;;;5020941;28;20518;-66
2022/10/03 11:01:47;;;;;;;11.03;8.03;;;16.80;99.90;;;;;;5029746;28;20443;-66
2022/10/03 11:04:25;;;;;;;17.40;8.70;;;16.90;99.90;;;;;;5024621;28;20430;-66
2022/10/03 11:07:15;;;;;;;9.93;6.90;;;17.00;99.90;;;;;;5029190;28;20410;-67
2022/10/03 11:10:02;;;;;;;11.23;5.80;;;17.00;99.90;;;;;;5026343;28;20814;-66
2022/10/03 11:13:05;;;;;;;14.53;7.73;;;17.10;99.90;;;;;;5029806;28;20458;-66
2022/10/03 11:15:50;;;;;;;11.50;6.70;;;17.00;99.90;;;;;;5032618;28;20465;-66
2022/10/03 11:19:10;;;;;;;10.17;5.90;;;17.00;99.90;;;;;;5029678;28;20419;-66
2022/10/03 11:21:50;;;;;;;18.33;6.20;;;17.00;99.90;;;;;;4983882;28;20464;-66
2022/10/03 11:24:40;;;;;;;9.90;6.47;;;17.00;99.90;;;;;;4955620;28;21136;-67
2022/10/03 11:27:32;;;;;;;11.03;5.10;;;17.00;99.90;;;;;;5030235;28;20419;-66
2022/10/03 11:30:41;;;;;;;9.40;5.73;;;17.10;99.90;;;;;;5025022;28;20810;-67
2022/10/03 11:34:05;;;;;;;12.00;5.53;;;17.20;99.90;;;;;;5019750;28;20434;-66
2022/10/03 11:37:01;;;;;;;7.40;5.03;;;17.20;99.90;;;;;;5028066;28;20561;-66
2022/10/03 11:39:49;;;;;;;10.50;6.10;;;17.40;99.90;;;;;;5021866;28;20457;-66
2022/10/03 11:42:27;;;;;;;10.53;5.83;;;17.50;99.90;;;;;;5023485;28;20453;-66
2022/10/03 11:45:00;;;;;;;9.40;5.13;;;17.60;99.90;;;;;;5026542;28;21018;-66
2022/10/03 11:47:38;;;;;;;7.77;5.03;;;17.70;99.90;;;;;;5029305;28;20455;-66
2022/10/03 11:50:19;;;;;;;7.13;4.63;;;17.70;99.90;;;;;;5029092;28;20434;-66
2022/10/03 11:53:11;;;;;;;8.00;4.93;;;17.70;99.90;;;;;;5032481;28;20473;-66
2022/10/03 11:55:47;;;;;;;9.50;5.10;;;17.70;99.90;;;;;;5027020;28;20475;-66
2022/10/03 11:58:15;;;;;;;9.13;5.00;;;17.90;99.90;;;;;;5023126;28;20423;-66
2022/10/03 12:00:46;;;;;;;10.33;4.50;;;18.60;99.90;;;;;;5022891;28;20435;-66
2022/10/03 12:03:26;;;;;;;6.40;4.60;;;19.40;99.90;;;;;;5018805;28;20814;-66
2022/10/03 12:09:42;;;;;;;9.73;4.30;;;21.20;99.90;;;;;;5030355;28;20436;-66
2022/10/03 12:12:41;;;;;;;8.23;4.17;;;22.20;99.90;;;;;;5030821;28;20427;-66
2022/10/03 12:15:28;;;;;;;4.93;4.20;;;23.00;99.90;;;;;;5026404;28;20421;-66
2022/10/03 12:18:03;;;;;;;8.23;4.27;;;22.80;99.90;;;;;;5024604;28;21789;-66
2022/10/03 12:20:47;;;;;;;7.67;4.60;;;22.50;99.90;;;;;;5027870;28;20418;-66
2022/10/03 12:23:31;;;;;;;6.97;4.67;;;22.40;99.90;;;;;;5026413;28;20487;-66
2022/10/03 12:26:01;;;;;;;6.87;4.80;;;22.10;99.90;;;;;;5023210;28;20472;-66
2022/10/03 12:28:38;;;;;;;11.60;4.60;;;21.80;99.90;;;;;;5028501;28;20507;-66
2022/10/03 12:31:27;;;;;;;8.93;4.37;;;21.50;99.90;;;;;;5025364;28;20488;-66
2022/10/03 12:34:02;;;;;;;10.27;5.10;;;21.20;99.90;;;;;;5031287;28;20416;-66
2022/10/03 12:36:43;;;;;;;8.63;4.57;;;20.90;99.90;;;;;;5025436;28;20648;-66
2022/10/03 12:39:20;;;;;;;16.23;5.40;;;20.70;99.90;;;;;;5021073;28;20802;-66
2022/10/03 12:42:08;;;;;;;8.80;4.93;;;20.40;99.90;;;;;;5021959;28;20521;-66
2022/10/03 12:45:10;;;;;;;5.77;4.80;;;20.10;99.90;;;;;;5027526;28;20477;-66
2022/10/03 12:47:54;;;;;;;10.10;5.20;;;20.00;99.90;;;;;;5023255;28;20435;-66
2022/10/03 12:50:58;;;;;;;7.50;4.77;;;19.90;99.90;;;;;;5033496;28;20464;-66
2022/10/03 12:53:47;;;;;;;8.80;5.27;;;19.80;99.90;;;;;;5016342;28;20516;-66
2022/10/03 12:56:34;;;;;;;10.57;4.87;;;19.80;99.90;;;;;;5001179;28;20472;-66
2022/10/03 12:59:41;;;;;;;8.80;5.13;;;19.80;99.90;;;;;;5027562;28;20458;-66
2022/10/03 13:02:37;;;;;;;8.37;4.57;;;20.20;99.90;;;;;;5024990;28;20459;-66
2022/10/03 13:05:29;;;;;;;6.00;3.93;;;20.50;99.90;;;;;;5023596;28;20597;-66
2022/10/03 13:08:20;;;;;;;6.63;4.37;;;20.80;99.90;;;;;;5016022;28;20438;-66
2022/10/03 13:10:50;;;;;;;6.07;4.07;;;21.20;99.90;;;;;;5032664;28;20690;-66
2022/10/03 13:13:49;;;;;;;7.63;3.93;;;21.30;99.90;;;;;;5024278;28;20507;-66
2022/10/03 13:16:44;;;;;;;6.07;3.90;;;21.50;99.90;;;;;;5023310;28;20473;-66
2022/10/03 13:19:22;;;;;;;4.80;4.07;;;21.90;99.90;;;;;;5016740;28;20661;-65
2022/10/03 13:21:54;;;;;;;7.57;3.70;;;22.30;99.90;;;;;;5029883;28;21306;-66
2022/10/03 13:24:30;;;;;;;7.57;3.60;;;22.80;99.90;;;;;;5024971;28;20471;-66
2022/10/03 13:27:26;;;;;;;6.17;3.70;;;23.40;99.90;;;;;;5030259;28;20430;-66
2022/10/03 13:30:04;;;;;;;6.10;3.97;;;23.80;99.90;;;;;;5026777;28;20501;-66
2022/10/03 13:32:36;;;;;;;3.93;3.33;;;24.20;99.90;;;;;;5020920;28;20684;-66
2022/10/03 13:38:11;;;;;;;4.93;3.30;;;24.50;99.90;;;;;;5024761;28;20922;-66
2022/10/03 13:40:46;;;;;;;6.77;3.20;;;24.80;99.90;;;;;;5029884;28;20858;-65
2022/10/03 13:43:15;;;;;;;6.93;3.90;;;25.10;99.90;;;;;;5025649;28;21353;-66
2022/10/03 13:45:46;;;;;;;5.40;4.10;;;25.30;98.90;;;;;;5021563;28;20540;-65
2022/10/03 13:48:19;;;;;;;5.70;3.60;;;25.60;97.20;;;;;;5017590;28;20430;-66
2022/10/03 13:51:04;;;;;;;5.70;3.50;;;25.80;96.60;;;;;;5026321;28;20442;-66
2022/10/03 13:53:47;;;;;;;8.33;4.63;;;26.00;94.90;;;;;;5012614;28;20482;-66
2022/10/03 13:56:35;;;;;;;6.60;4.50;;;25.90;92.80;;;;;;5013418;28;20467;-66
2022/10/03 13:59:32;;;;;;;6.10;3.80;;;26.20;93.40;;;;;;5021172;28;20542;-67
2022/10/03 14:02:25;;;;;;;5.23;3.60;;;26.50;92.30;;;;;;5020540;28;20450;-66
2022/10/03 14:05:01;;;;;;;5.47;3.73;;;26.60;90.10;;;;;;5030277;28;20452;-66
2022/10/03 14:07:35;;;;;;;7.03;3.90;;;26.80;86.10;;;;;;5027125;28;20443;-67
2022/10/03 14:10:26;;;;;;;4.90;3.50;;;26.90;85.30;;;;;;5027027;28;20974;-66
2022/10/03 14:13:03;;;;;;;5.03;3.50;;;26.90;83.10;;;;;;5019071;28;20942;-68
2022/10/03 14:15:30;;;;;;;7.30;3.80;;;26.60;81.40;;;;;;5022296;28;20512;-63
2022/10/03 14:17:58;;;;;;;5.47;4.33;;;26.50;81.90;;;;;;5024473;28;20435;-66
2022/10/03 14:20:30;;;;;;;6.20;3.93;;;26.50;81.30;;;;;;5026830;28;20456;-66
2022/10/03 14:23:32;;;;;;;7.53;3.97;;;26.40;81.90;;;;;;5030830;28;20549;-65
2022/10/03 14:26:17;;;;;;;8.47;4.47;;;26.20;81.20;;;;;;5033734;28;20454;-66
2022/10/03 14:29:02;;;;;;;7.43;5.50;;;26.00;80.50;;;;;;5031971;28;20419;-66
2022/10/03 14:31:40;;;;;;;5.53;3.73;;;25.50;80.40;;;;;;5024066;28;20465;-66
2022/10/03 14:34:38;;;;;;;9.97;3.70;;;25.30;81.70;;;;;;5023292;28;20438;-66
2022/10/03 14:37:22;;;;;;;5.60;3.80;;;25.10;82.30;;;;;;5025365;28;20473;-66
2022/10/03 14:40:19;;;;;;;5.77;3.10;;;24.90;83.10;;;;;;5028844;28;21030;-66
2022/10/03 14:43:09;;;;;;;6.47;3.60;;;24.60;82.70;;;;;;5027533;28;20814;-66